createdAt,value
2023-03-31T00:03:10.396Z,5.56
2023-03-31T00:07:16.632Z,5.58
2023-03-31T00:11:19.319Z,5.70
2023-03-31T00:15:22.000Z,5.56
2023-03-31T00:19:24.695Z,5.40
2023-03-31T00:23:28.961Z,5.33
2023-03-31T00:27:31.640Z,5.32
2023-03-31T00:31:35.027Z,5.31
2023-03-31T00:35:39.287Z,5.31
2023-03-31T00:39:43.500Z,5.28
2023-03-31T00:44:06.453Z,5.32
2023-03-31T00:48:17.234Z,5.30
2023-03-31T00:52:23.865Z,5.27
2023-03-31T00:56:32.842Z,5.22
2023-03-31T01:00:35.637Z,5.12
2023-03-31T01:04:44.543Z,5.06
2023-03-31T01:08:50.066Z,5.05
2023-03-31T01:12:56.643Z,5.01
2023-03-31T01:16:59.339Z,5.03
2023-03-31T01:21:30.592Z,4.83
2023-03-31T01:26:18.360Z,4.66
2023-03-31T01:30:50.744Z,4.68
2023-03-31T01:35:31.951Z,4.68
2023-03-31T01:40:16.702Z,4.60
2023-03-31T01:44:30.884Z,4.56
2023-03-31T01:48:42.010Z,4.51
2023-03-31T01:52:50.793Z,4.50
2023-03-31T01:56:59.959Z,4.53
2023-03-31T02:01:06.805Z,4.52
2023-03-31T02:05:13.660Z,4.48
2023-03-31T02:09:21.041Z,4.38
2023-03-31T02:13:28.528Z,4.42
2023-03-31T02:17:32.567Z,4.44
2023-03-31T02:21:40.168Z,4.44
2023-03-31T02:25:49.241Z,4.36
2023-03-31T02:29:54.368Z,4.28
2023-03-31T02:33:57.124Z,4.26
2023-03-31T02:37:59.848Z,4.29
2023-03-31T02:42:07.136Z,4.32
2023-03-31T02:46:11.721Z,4.34
2023-03-31T02:50:14.669Z,4.37
2023-03-31T02:54:29.432Z,4.41
2023-03-31T02:58:59.074Z,4.44
2023-03-31T03:03:17.634Z,4.43
2023-03-31T03:07:29.701Z,4.45
2023-03-31T03:11:41.058Z,4.47
2023-03-31T03:15:48.857Z,4.45
2023-03-31T03:19:58.253Z,4.45
2023-03-31T03:24:01.610Z,4.52
2023-03-31T03:28:04.320Z,4.54
2023-03-31T03:32:07.290Z,4.49
2023-03-31T03:36:11.781Z,4.49
2023-03-31T03:40:15.373Z,4.51
2023-03-31T03:44:18.187Z,4.49
2023-03-31T03:48:21.346Z,4.51
2023-03-31T03:52:25.401Z,4.52
2023-03-31T03:56:28.278Z,4.54
2023-03-31T04:00:30.958Z,4.54
2023-03-31T04:04:33.666Z,4.53
2023-03-31T04:08:37.996Z,4.54
2023-03-31T04:12:40.632Z,4.59
2023-03-31T04:16:43.383Z,4.58
2023-03-31T04:20:46.201Z,4.60
2023-03-31T04:24:52.691Z,4.61
2023-03-31T04:29:00.214Z,4.71
2023-03-31T04:33:04.153Z,4.70
2023-03-31T04:37:10.735Z,4.70
2023-03-31T04:41:14.820Z,4.72
2023-03-31T04:45:18.260Z,4.73
2023-03-31T04:49:21.067Z,4.79
2023-03-31T04:53:24.053Z,4.88
2023-03-31T04:57:28.234Z,5.02
2023-03-31T05:01:33.578Z,5.20
2023-03-31T05:05:36.808Z,5.28
2023-03-31T05:09:39.441Z,5.37
2023-03-31T05:13:43.427Z,5.43
2023-03-31T05:17:46.180Z,5.56
2023-03-31T05:21:48.996Z,5.70
2023-03-31T05:25:51.670Z,5.74
2023-03-31T05:29:55.961Z,5.77
2023-03-31T05:33:58.600Z,5.83
2023-03-31T05:38:01.252Z,6.01
2023-03-31T05:42:06.216Z,6.09
2023-03-31T05:46:10.874Z,6.21
2023-03-31T05:50:14.874Z,6.32
2023-03-31T05:54:18.018Z,6.39
2023-03-31T05:58:20.774Z,6.41
2023-03-31T06:02:25.267Z,6.52
2023-03-31T06:06:28.015Z,6.64
2023-03-31T06:10:30.751Z,6.68
2023-03-31T06:14:33.388Z,6.75
2023-03-31T06:18:37.897Z,6.81
2023-03-31T06:22:40.536Z,6.83
2023-03-31T06:26:43.216Z,6.87
2023-03-31T06:30:45.867Z,6.96
2023-03-31T06:34:49.850Z,7.07
2023-03-31T06:38:52.491Z,7.13
2023-03-31T06:42:56.192Z,7.22
2023-03-31T06:46:59.194Z,7.21
2023-03-31T06:51:05.197Z,7.20
2023-03-31T06:55:10.207Z,7.24
2023-03-31T06:59:13.187Z,7.27
2023-03-31T07:03:19.411Z,7.31
2023-03-31T07:07:23.604Z,7.31
2023-03-31T07:11:26.442Z,7.29
2023-03-31T07:15:29.354Z,7.26
2023-03-31T07:19:31.998Z,7.24
2023-03-31T07:23:39.045Z,7.29
2023-03-31T07:27:41.943Z,7.30
2023-03-31T07:31:44.932Z,7.31
2023-03-31T07:35:54.023Z,7.38
2023-03-31T07:40:09.564Z,7.42
2023-03-31T07:44:12.298Z,7.42
2023-03-31T07:48:15.105Z,7.44
2023-03-31T07:52:19.757Z,7.44
2023-03-31T07:56:26.049Z,7.43
2023-03-31T08:00:29.183Z,7.46
2023-03-31T08:04:31.919Z,7.42
2023-03-31T08:08:34.621Z,7.43
2023-03-31T08:12:38.614Z,7.43
2023-03-31T08:16:41.588Z,7.42
2023-03-31T08:20:44.359Z,7.47
2023-03-31T08:24:48.154Z,7.49
2023-03-31T08:28:52.868Z,7.52
2023-03-31T08:32:56.186Z,7.57
2023-03-31T08:36:59.009Z,7.60
2023-03-31T08:41:02.647Z,7.61
2023-03-31T08:45:17.145Z,7.65
2023-03-31T08:49:22.077Z,7.68
2023-03-31T08:53:28.758Z,7.74
2023-03-31T08:57:35.078Z,7.74
2023-03-31T09:01:54.880Z,7.75
2023-03-31T09:06:02.802Z,7.77
2023-03-31T09:10:22.156Z,7.84
2023-03-31T09:14:35.132Z,7.88
2023-03-31T09:18:40.729Z,7.93
2023-03-31T09:22:49.099Z,8.09
2023-03-31T09:26:55.414Z,8.18
2023-03-31T09:30:58.372Z,8.46
2023-03-31T09:35:17.187Z,8.79
2023-03-31T09:39:19.833Z,8.86
2023-03-31T09:43:24.829Z,8.89
2023-03-31T09:47:34.491Z,8.90
2023-03-31T09:51:42.322Z,9.09
2023-03-31T09:55:52.398Z,9.35
2023-03-31T10:00:03.096Z,9.56
2023-03-31T10:04:09.973Z,9.85
2023-03-31T10:08:24.934Z,10.18
2023-03-31T10:12:30.001Z,10.80
2023-03-31T10:16:34.529Z,11.21
2023-03-31T10:20:39.733Z,11.42
2023-03-31T10:24:46.109Z,11.64
2023-03-31T10:28:52.492Z,12.16
2023-03-31T10:32:55.470Z,12.05
2023-03-31T10:36:58.645Z,12.26
2023-03-31T10:41:03.075Z,12.38
2023-03-31T10:45:23.191Z,12.63
2023-03-31T10:49:38.910Z,12.83
2023-03-31T10:53:43.559Z,13.12
2023-03-31T10:57:56.726Z,13.14
2023-03-31T11:02:17.622Z,13.33
2023-03-31T11:06:27.865Z,12.92
2023-03-31T11:10:44.300Z,13.20
2023-03-31T11:15:01.265Z,13.14
2023-03-31T11:19:17.890Z,13.09
2023-03-31T11:23:28.176Z,13.06
2023-03-31T11:27:49.300Z,12.96
2023-03-31T11:32:00.816Z,13.40
2023-03-31T11:36:17.643Z,13.17
2023-03-31T11:40:36.752Z,13.52
2023-03-31T11:44:43.940Z,13.33
2023-03-31T11:48:52.767Z,13.20
2023-03-31T11:53:01.482Z,12.84
2023-03-31T11:57:11.512Z,12.84
2023-03-31T12:01:21.784Z,12.91
2023-03-31T12:05:28.789Z,12.95
2023-03-31T12:09:38.019Z,13.12
2023-03-31T12:13:48.466Z,13.88
2023-03-31T12:17:58.246Z,14.48
2023-03-31T12:22:09.576Z,15.02
2023-03-31T12:26:22.813Z,15.58
2023-03-31T12:30:34.540Z,15.86
2023-03-31T12:34:43.490Z,15.94
2023-03-31T12:39:02.673Z,16.02
2023-03-31T12:43:30.027Z,16.55
2023-03-31T12:47:45.739Z,16.50
2023-03-31T12:52:00.625Z,16.52
2023-03-31T12:56:05.209Z,15.87
2023-03-31T13:00:23.104Z,16.51
2023-03-31T13:04:28.022Z,16.83
2023-03-31T13:08:56.524Z,17.16
2023-03-31T13:13:03.941Z,17.19
2023-03-31T13:17:20.000Z,17.60
2023-03-31T13:21:23.913Z,17.19
2023-03-31T13:25:51.319Z,16.57
2023-03-31T13:29:56.354Z,15.75
2023-03-31T13:34:01.048Z,15.16
2023-03-31T13:38:14.581Z,14.86
2023-03-31T13:42:42.718Z,11.02
2023-03-31T13:46:57.450Z,9.02
2023-03-31T13:51:16.692Z,8.82
2023-03-31T13:55:47.774Z,9.01
2023-03-31T14:00:12.614Z,9.15
2023-03-31T14:04:56.840Z,9.25
2023-03-31T14:09:03.816Z,9.31
2023-03-31T14:13:09.633Z,9.42
2023-03-31T14:17:13.072Z,9.60
2023-03-31T14:21:27.410Z,9.85
2023-03-31T14:25:42.960Z,10.71
2023-03-31T14:29:52.767Z,11.25
2023-03-31T14:34:14.102Z,11.68
2023-03-31T14:38:21.868Z,12.04
2023-03-31T14:42:27.447Z,11.80
2023-03-31T14:46:32.914Z,12.35
2023-03-31T14:50:36.628Z,12.73
2023-03-31T14:54:41.480Z,12.53
2023-03-31T14:58:48.547Z,12.37
2023-03-31T15:02:52.006Z,12.74
2023-03-31T15:06:54.900Z,13.28
2023-03-31T15:11:11.939Z,13.50
2023-03-31T15:15:16.508Z,13.48
2023-03-31T15:19:21.137Z,13.48
2023-03-31T15:23:26.071Z,13.12
2023-03-31T15:27:37.388Z,12.98
2023-03-31T15:31:42.104Z,12.70
2023-03-31T15:35:45.215Z,12.63
2023-03-31T15:39:49.861Z,12.72
2023-03-31T15:44:06.644Z,13.09
2023-03-31T15:48:19.645Z,13.52
2023-03-31T15:52:35.550Z,13.10
2023-03-31T15:56:43.700Z,13.55
2023-03-31T16:00:52.760Z,13.96
2023-03-31T16:04:57.981Z,13.24
2023-03-31T16:09:05.083Z,12.92
2023-03-31T16:13:11.326Z,12.89
2023-03-31T16:17:24.895Z,12.49
2023-03-31T16:21:31.667Z,12.26
2023-03-31T16:25:41.198Z,12.09
2023-03-31T16:29:43.881Z,12.40
2023-03-31T16:33:56.737Z,12.12
2023-03-31T16:38:01.710Z,11.89
2023-03-31T16:42:04.699Z,11.80
2023-03-31T16:46:07.375Z,11.65
2023-03-31T16:50:12.196Z,11.50
2023-03-31T16:54:14.870Z,11.33
2023-03-31T16:58:18.207Z,11.16
2023-03-31T17:02:21.823Z,11.63
2023-03-31T17:06:25.846Z,11.85
2023-03-31T17:10:28.506Z,11.61
2023-03-31T17:14:31.342Z,11.06
2023-03-31T17:18:34.348Z,10.84
2023-03-31T17:22:38.787Z,10.66
2023-03-31T17:26:41.482Z,10.58
2023-03-31T17:30:47.800Z,10.58
2023-03-31T17:34:50.548Z,10.50
2023-03-31T17:38:55.358Z,10.43
2023-03-31T17:42:58.028Z,10.26
2023-03-31T17:47:01.172Z,10.10
2023-03-31T17:51:06.867Z,10.01
2023-03-31T17:55:11.872Z,9.84
2023-03-31T17:59:14.575Z,9.76
2023-03-31T18:03:17.687Z,9.65
2023-03-31T18:07:23.109Z,9.56
2023-03-31T18:11:27.387Z,9.49
2023-03-31T18:15:30.873Z,9.46
2023-03-31T18:19:33.795Z,9.35
2023-03-31T18:23:37.331Z,9.24
2023-03-31T18:27:41.841Z,9.20
2023-03-31T18:31:44.632Z,9.18
2023-03-31T18:35:48.297Z,9.12
2023-03-31T18:39:51.853Z,9.05
2023-03-31T18:43:56.310Z,9.00
2023-03-31T18:47:59.504Z,8.97
2023-03-31T18:52:04.284Z,8.94
2023-03-31T18:56:07.737Z,8.91
2023-03-31T19:00:14.878Z,8.93
2023-03-31T19:04:17.778Z,9.01
2023-03-31T19:08:21.087Z,9.06
2023-03-31T19:12:23.865Z,9.06
2023-03-31T19:16:28.880Z,9.07
2023-03-31T19:20:31.556Z,9.13
2023-03-31T19:24:34.191Z,9.14
2023-03-31T19:28:37.822Z,9.11
2023-03-31T19:32:42.678Z,9.09
2023-03-31T19:36:45.367Z,9.02
2023-03-31T19:40:49.408Z,8.96
2023-03-31T19:44:52.157Z,8.88
2023-03-31T19:48:56.451Z,8.85
2023-03-31T19:52:59.253Z,8.82
2023-03-31T19:57:02.187Z,8.74
2023-03-31T20:01:07.529Z,8.69
2023-03-31T20:05:11.739Z,8.60
2023-03-31T20:09:14.455Z,8.54
2023-03-31T20:13:18.412Z,8.53
2023-03-31T20:17:21.843Z,8.47
2023-03-31T20:21:31.129Z,8.44
2023-03-31T20:25:33.825Z,8.42
2023-03-31T20:29:37.101Z,8.30
2023-03-31T20:33:40.348Z,8.17
2023-03-31T20:37:44.820Z,7.97
2023-03-31T20:41:49.675Z,7.77
2023-03-31T20:45:57.768Z,7.61
2023-03-31T20:50:00.790Z,7.53
2023-03-31T20:54:05.864Z,7.42
2023-03-31T20:58:08.520Z,7.33
2023-03-31T21:02:13.513Z,7.23
2023-03-31T21:06:18.285Z,7.17
2023-03-31T21:10:22.274Z,7.15
2023-03-31T21:14:25.007Z,7.14
2023-03-31T21:18:28.662Z,7.15
2023-03-31T21:22:31.669Z,7.12
2023-03-31T21:26:35.671Z,7.07
2023-03-31T21:30:38.566Z,7.05
2023-03-31T21:34:41.295Z,7.02
2023-03-31T21:38:44.682Z,7.02
2023-03-31T21:42:48.672Z,6.98
2023-03-31T21:46:52.001Z,6.98
2023-03-31T21:50:56.198Z,7.00
2023-03-31T21:54:58.852Z,6.98
2023-03-31T21:59:04.391Z,6.95
2023-03-31T22:03:25.830Z,6.95
2023-03-31T22:07:29.588Z,6.89
2023-03-31T22:11:32.439Z,6.86
2023-03-31T22:15:36.572Z,6.89
2023-03-31T22:19:39.280Z,6.85
2023-03-31T22:23:41.935Z,6.83
2023-03-31T22:27:44.610Z,6.84
2023-03-31T22:31:48.675Z,6.82
2023-03-31T22:35:51.425Z,6.81
2023-03-31T22:39:54.085Z,6.76
2023-03-31T22:43:56.749Z,6.76
2023-03-31T22:48:01.037Z,6.75
2023-03-31T22:52:03.699Z,6.75
2023-03-31T22:56:08.442Z,6.76
2023-03-31T23:00:12.748Z,6.81
2023-03-31T23:04:16.803Z,6.88
2023-03-31T23:08:19.565Z,6.91
2023-03-31T23:12:22.224Z,6.86
2023-03-31T23:16:27.087Z,6.87
2023-03-31T23:20:31.153Z,6.93
2023-03-31T23:24:33.837Z,6.89
2023-03-31T23:28:38.326Z,6.93
2023-03-31T23:32:41.241Z,6.94
2023-03-31T23:36:45.382Z,6.95
2023-03-31T23:40:48.602Z,6.95
2023-03-31T23:44:51.274Z,6.93
2023-03-31T23:48:54.240Z,7.00
2023-03-31T23:52:59.498Z,7.04
2023-03-31T23:57:02.229Z,7.03
